Data for 10/20/2006

Time Sea-Level Adjusted Pressure Absolute Pressure Temperature Relative Humidity Dew Point   
(mb) (inHg) (mb) (inHg) (C) (F) (%) (C) (F)
00:05 1009 29.8 838 24.75 8.4 47.2 74 4 39.2
00:10 1009 29.8 838 24.75 8.3 47 74 4 39.2
00:15 1009 29.8 838 24.75 8.2 46.8 75 4.1 39.4
00:20 1009 29.8 838 24.75 8.1 46.5 76 4.2 39.5
00:25 1009 29.8 838 24.75 8.1 46.5 79 4.7 40.5
00:30 1009 29.8 838 24.75 7.9 46.1 82 4.9 40.8
00:35 1009 29.8 838 24.75 7.8 46 82 4.9 40.7
00:40 1009 29.8 838 24.75 7.8 46.1 81 4.8 40.6
00:45 1009 29.8 838 24.75 7.9 46.2 80 4.7 40.4
00:50 1009 29.8 838 24.75 7.9 46.3 81 4.9 40.8
00:55 1009 29.8 838 24.75 8.1 46.5 78 4.5 40.2
01:00 1009 29.8 838 24.75 8.5 47.3 74 4.1 39.3
01:05 1009 29.8 838 24.75 8.3 47 72 3.7 38.6
01:10 1009 29.8 838 24.75 8.3 47 73 3.7 38.7
01:15 1009 29.8 838 24.75 8.2 46.7 72 3.5 38.4
01:20 1009 29.8 838 24.75 8.1 46.6 74 3.8 38.8
01:25 1009 29.8 838 24.75 8.2 46.7 73 3.7 38.6
01:30 1009 29.8 838 24.75 8.2 46.7 73 3.6 38.5
01:35 1009 29.8 838 24.75 8.2 46.7 74 3.8 38.8
01:40 1010 29.83 839 24.78 7.7 45.8 83 5 41.1
01:45 1010 29.83 839 24.78 6 42.8 90 4.5 40.1
01:50 1010 29.83 840 24.81 5.2 41.4 93 4.2 39.6
01:55 1011 29.85 840 24.81 5 41 94 4.1 39.4
02:00 1011 29.85 840 24.81 5 40.9 95 4.2 39.5
02:05 1011 29.85 840 24.81 4.9 40.9 94 4 39.2
02:10 1011 29.85 840 24.81 5 41 94 4.1 39.3
02:15 1011 29.85 840 24.81 5 40.9 94 4.1 39.3
02:20 1011 29.85 840 24.81 5 41 94 4.2 39.5
02:25 1011 29.85 840 24.81 5.1 41.1 94 4.2 39.6
02:30 1011 29.85 840 24.81 5.1 41.1 94 4.2 39.6
02:35 1011 29.85 840 24.81 5.2 41.3 94 4.3 39.7
02:40 1011 29.85 840 24.81 5.2 41.4 93 4.3 39.7
02:45 1011 29.85 840 24.81 5.3 41.5 92 4.1 39.4
02:50 1011 29.85 840 24.81 5.3 41.6 89 3.6 38.5
02:55 1011 29.85 841 24.83 5.3 41.6 88 3.5 38.4
03:00 1012 29.88 841 24.83 5.3 41.5 88 3.4 38.2
03:05 1012 29.88 841 24.83 5.3 41.5 86 3.2 37.7
03:10 1011 29.85 841 24.83 5.1 41.2 85 2.8 37.1
03:15 1011 29.85 841 24.83 5 41 84 2.5 36.6
03:20 1011 29.85 841 24.83 4.8 40.7 85 2.5 36.6
03:25 1011 29.85 841 24.83 4.8 40.7 86 2.7 36.8
03:30 1011 29.85 841 24.83 5 40.9 84 2.5 36.4
03:35 1012 29.88 841 24.83 5 41.1 83 2.3 36.2
03:40 1011 29.85 841 24.83 5.1 41.1 82 2.2 36
03:45 1011 29.85 841 24.83 5.1 41.1 82 2.2 36
03:50 1011 29.85 841 24.83 5 41.1 81 2.1 35.7
03:55 1011 29.85 841 24.83 5.2 41.3 81 2.1 35.8
04:00 1011 29.85 841 24.83 5.1 41.2 82 2.3 36.1
04:05 1011 29.85 840 24.81 4.9 40.7 82 2.1 35.8
04:10 1011 29.85 840 24.81 4.8 40.6 83 2.1 35.7
04:15 1011 29.85 840 24.81 4.9 40.8 83 2.1 35.9
04:20 1011 29.85 840 24.81 4.9 40.9 82 2 35.6
04:25 1011 29.85 840 24.81 5.1 41.1 78 1.6 34.9
04:30 1011 29.85 840 24.81 5.2 41.3 81 2.1 35.9
04:35 1011 29.85 841 24.83 5.2 41.3 79 1.8 35.2
04:40 1011 29.85 840 24.81 5.3 41.5 79 1.9 35.4
04:45 1011 29.85 840 24.81 5.3 41.6 78 1.8 35.2
04:50 1011 29.85 840 24.81 5.3 41.5 79 2 35.6
04:55 1011 29.85 840 24.81 5.3 41.6 82 2.5 36.5
05:00 1011 29.85 841 24.83 5.2 41.4 79 1.9 35.5
05:05 1011 29.85 841 24.83 5.3 41.5 83 2.5 36.6
05:10 1011 29.85 841 24.83 5.1 41.2 76 1.3 34.4
05:15 1011 29.85 841 24.83 5.2 41.3 77 1.5 34.7
05:20 1011 29.85 841 24.83 5.2 41.3 79 1.8 35.2
05:25 1011 29.85 841 24.83 5.2 41.4 80 2 35.6
05:30 1011 29.85 841 24.83 5.1 41.2 82 2.2 36
05:35 1011 29.85 841 24.83 5 41 83 2.3 36.1
05:40 1012 29.88 841 24.83 5.2 41.3 80 2 35.6
05:45 1012 29.88 841 24.83 5.3 41.5 81 2.3 36.1
05:50 1012 29.88 841 24.83 5.2 41.4 80 2 35.6
05:55 1012 29.88 841 24.83 5.3 41.5 80 2.1 35.9
06:00 1012 29.88 841 24.83 5.3 41.5 80 2 35.6
06:05 1012 29.88 841 24.83 5.4 41.7 77 1.6 34.8
06:10 1012 29.88 841 24.83 5.2 41.3 80 2 35.6
06:15 1012 29.88 841 24.83 4.8 40.7 81 1.9 35.3
06:20 1012 29.88 841 24.83 4.8 40.6 80 1.6 34.8
06:25 1012 29.88 841 24.83 4.7 40.5 80 1.6 34.9
06:30 1012 29.88 841 24.83 4.9 40.8 78 1.4 34.5
06:35 1012 29.88 841 24.83 4.9 40.9 79 1.6 34.9
06:40 1012 29.88 841 24.83 4.9 40.9 80 1.7 35
06:45 1012 29.88 841 24.83 4.9 40.7 78 1.4 34.5
06:50 1012 29.88 841 24.83 4.9 40.8 78 1.4 34.5
06:55 1012 29.88 841 24.83 4.9 40.9 78 1.5 34.7
07:00 1012 29.88 841 24.83 5 40.9 77 1.3 34.3
07:05 1012 29.88 841 24.83 5.1 41.1 77 1.3 34.3
07:10 1012 29.88 841 24.83 5.2 41.4 74 1.1 33.9
07:15 1012 29.88 841 24.83 5.3 41.6 74 1.1 33.9
07:20 1012 29.88 842 24.86 5.3 41.6 76 1.4 34.5
07:25 1012 29.88 842 24.86 5 41 78 1.6 34.8
07:30 1012 29.88 842 24.86 4.6 40.3 79 1.4 34.4
07:35 1013 29.91 842 24.86 4.4 40 79 1.1 34
07:40 1013 29.91 842 24.86 4.3 39.8 79 1.1 33.9
07:45 1013 29.91 842 24.86 4.2 39.5 83 1.5 34.7
07:50 1013 29.91 842 24.86 3.9 39 86 1.7 35
07:55 1013 29.91 842 24.86 3.6 38.5 88 1.8 35.3
08:00 1013 29.91 842 24.86 3.3 38 91 1.9 35.5
08:05 1013 29.91 842 24.86 3.3 37.9 91 2 35.6
08:10 1013 29.91 842 24.86 3.2 37.8 91 1.8 35.3
08:15 1013 29.91 843 24.89 3 37.4 92 1.8 35.3
08:20 1013 29.91 843 24.89 3.1 37.5 92 1.9 35.3
08:25 1014 29.94 843 24.89 3.1 37.6 91 1.8 35.3
08:30 1014 29.94 843 24.89 3.1 37.6 91 1.8 35.3
08:35 1014 29.94 843 24.89 3.1 37.6 91 1.8 35.2
08:40 1014 29.94 843 24.89 3 37.5 90 1.6 34.9
08:45 1014 29.94 843 24.89 3.1 37.5 91 1.7 35.1
08:50 1014 29.94 843 24.89 3.1 37.5 90 1.7 35
08:55 1014 29.94 843 24.89 3 37.4 90 1.6 34.8
09:00 1014 29.94 843 24.89 2.9 37.3 90 1.5 34.7
09:05 1014 29.94 843 24.89 2.7 36.9 91 1.4 34.5
09:10 1014 29.94 843 24.89 2.6 36.6 91 1.3 34.4
09:15 1014 29.94 844 24.92 2.4 36.3 92 1.2 34.2
09:20 1014 29.94 844 24.92 2.2 36 92 1.1 34
09:25 1014 29.94 844 24.92 2.2 36 93 1.1 34
09:30 1015 29.97 844 24.92 2.1 35.8 93 1.2 34.1
09:35 1015 29.97 844 24.92 2.2 36 93 1.2 34.2
09:40 1015 29.97 844 24.92 2.2 36 93 1.2 34.1
09:45 1015 29.97 844 24.92 2.2 35.9 93 1.1 34
09:50 1015 29.97 844 24.92 2.3 36.1 93 1.3 34.3
09:55 1015 29.97 844 24.92 2.3 36.1 93 1.3 34.3
10:00 1015 29.97 844 24.92 2.3 36.2 93 1.4 34.4
10:05 1015 29.97 844 24.92 2.4 36.3 93 1.4 34.4
10:10 1015 29.97 844 24.92 2.3 36.1 93 1.3 34.3
10:15 1015 29.97 844 24.92 2.3 36.1 93 1.3 34.3
10:20 1015 29.97 844 24.92 2.2 36 94 1.3 34.3
10:25 1015 29.97 845 24.95 2.3 36.2 94 1.4 34.6
10:30 1015 29.97 845 24.95 2.4 36.2 93 1.4 34.5
10:35 1015 29.97 845 24.95 2.4 36.3 93 1.4 34.5
10:40 1016 30 845 24.95 2.4 36.4 92 1.3 34.3
10:45 1016 30 845 24.95 2.4 36.3 93 1.3 34.4
10:50 1016 30 845 24.95 2.5 36.5 93 1.4 34.6
10:55 1016 30 845 24.95 2.6 36.7 92 1.5 34.7
11:00 1016 30 845 24.95 2.7 36.9 92 1.5 34.8
11:05 1016 30 845 24.95 2.8 37.1 92 1.6 34.9
11:10 1016 30 845 24.95 2.9 37.2 92 1.7 35
11:15 1016 30 845 24.95 2.9 37.3 92 1.7 35
11:20 1016 30 845 24.95 3 37.3 91 1.6 34.9
11:25 1016 30 845 24.95 3.1 37.5 91 1.7 35.1
11:30 1016 30 845 24.95 3.2 37.8 90 1.7 35.1
11:35 1016 30 845 24.95 3.3 37.9 89 1.6 34.9
11:40 1016 30 845 24.95 3.4 38 88 1.5 34.7
11:45 1016 30 845 24.95 3.4 38.1 88 1.6 34.9
11:50 1016 30 845 24.95 3.4 38 89 1.7 35.1
11:55 1016 30 845 24.95 3.3 37.9 88 1.6 34.8
12:00 1016 30 845 24.95 3.4 38.1 90 1.8 35.3
12:05 1016 30 846 24.98 3.5 38.3 88 1.8 35.2
12:10 1016 30 846 24.98 3.7 38.6 88 1.9 35.4
12:15 1016 30 846 24.98 3.7 38.6 87 1.7 35.1
12:20 1016 30 846 24.98 3.7 38.6 87 1.8 35.2
12:25 1017 30.03 846 24.98 3.8 38.9 86 1.8 35.2
12:30 1017 30.03 846 24.98 3.9 38.9 87 1.8 35.3
12:35 1017 30.03 846 24.98 3.9 39 86 1.7 35.1
12:40 1017 30.03 846 24.98 4 39.2 86 1.8 35.2
12:45 1017 30.03 846 24.98 4.1 39.3 85 1.9 35.3
12:50 1017 30.03 846 24.98 4 39.2 84 1.6 34.9
12:55 1017 30.03 846 24.98 4 39.3 83 1.5 34.7
13:00 1017 30.03 846 24.98 4.1 39.3 84 1.6 34.9
13:05 1017 30.03 846 24.98 4.2 39.6 82 1.4 34.6
13:10 1017 30.03 846 24.98 4.4 39.8 81 1.5 34.6
13:15 1017 30.03 846 24.98 4.4 40 82 1.7 35.1
13:20 1017 30.03 846 24.98 4.6 40.3 81 1.7 35
13:25 1017 30.03 846 24.98 4.6 40.3 81 1.6 34.9
13:30 1017 30.03 846 24.98 4.6 40.3 80 1.5 34.7
13:35 1017 30.03 846 24.98 4.6 40.3 80 1.4 34.5
13:40 1017 30.03 846 24.98 4.7 40.4 80 1.4 34.6
13:45 1017 30.03 846 24.98 4.8 40.6 78 1.3 34.3
13:50 1017 30.03 846 24.98 4.7 40.5 77 1.1 34
13:55 1017 30.03 846 24.98 4.7 40.4 79 1.4 34.4
14:00 1017 30.03 846 24.98 4.7 40.4 77 1 33.9
14:05 1017 30.03 846 24.98 4.5 40.1 79 1.2 34.1
14:10 1017 30.03 846 24.98 4.5 40 80 1.3 34.4
14:15 1017 30.03 846 24.98 4.5 40.1 80 1.3 34.3
14:20 1017 30.03 846 24.98 4.6 40.4 78 1.2 34.1
14:25 1017 30.03 847 25.01 4.5 40.1 78 1.1 33.9
14:30 1018 30.06 847 25.01 4.3 39.7 80 1.2 34.1
14:35 1018 30.06 847 25.01 4.4 39.8 78 0.9 33.6
14:40 1018 30.06 847 25.01 4.5 40.1 77 0.8 33.4
14:45 1018 30.06 847 25.01 4.6 40.3 76 0.7 33.3
14:50 1018 30.06 847 25.01 4.7 40.5 76 0.9 33.6
14:55 1018 30.06 847 25.01 4.8 40.6 75 0.8 33.4
15:00 1018 30.06 847 25.01 4.9 40.9 77 1.2 34.1
15:05 1018 30.06 847 25.01 5.1 41.1 76 1.2 34.2
15:10 1018 30.06 847 25.01 4.9 40.9 76 1 33.8
15:15 1018 30.06 847 25.01 4.8 40.6 77 1.2 34.1
15:20 1018 30.06 847 25.01 4.8 40.6 76 0.9 33.6
15:25 1018 30.06 847 25.01 4.8 40.7 76 1 33.8
15:30 1018 30.06 847 25.01 4.9 40.8 75 0.8 33.4
15:35 1018 30.06 848 25.04 5 41 75 1.1 33.9
15:40 1018 30.06 848 25.04 5.3 41.6 72 0.7 33.2
15:45 1018 30.06 848 25.04 5.1 41.3 74 1 33.8
15:50 1019 30.09 848 25.04 4.2 39.6 83 1.5 34.8
15:55 1019 30.09 848 25.04 3.3 37.9 86 1.2 34.2
16:00 1019 30.09 848 25.04 2.8 37.1 87 0.8 33.4
16:05 1019 30.09 848 25.04 2.8 37 83 0.2 32.3
16:10 1019 30.09 848 25.04 2.9 37.3 83 0.3 32.5
16:15 1019 30.09 848 25.04 2.9 37.3 85 0.6 33.1
16:20 1019 30.09 848 25.04 3.1 37.5 86 0.9 33.6
16:25 1019 30.09 848 25.04 3.4 38.2 85 1.1 34
16:30 1019 30.09 848 25.04 3.6 38.5 85 1.4 34.4
16:35 1019 30.09 849 25.07 3.7 38.6 85 1.4 34.5
16:40 1019 30.09 849 25.07 3.9 39 85 1.5 34.7
16:45 1020 30.12 849 25.07 4.1 39.5 83 1.5 34.7
16:50 1020 30.12 849 25.07 3.8 38.9 86 1.7 35.1
16:55 1020 30.12 849 25.07 3.2 37.7 85 0.9 33.7
17:00 1020 30.12 849 25.07 2.8 37 88 1 33.8
17:05 1020 30.12 849 25.07 3 37.4 88 1.3 34.3
17:10 1020 30.12 849 25.07 3 37.4 85 0.8 33.4
17:15 1020 30.12 849 25.07 3.8 38.8 77 0.2 32.3
17:20 1020 30.12 849 25.07 4.6 40.3 77 1 33.8
17:25 1020 30.12 849 25.07 4.4 40 78 1 33.7
17:30 1020 30.12 849 25.07 4 39.1 83 1.3 34.3
17:35 1020 30.12 849 25.07 3.4 38 88 1.5 34.8
17:40 1020 30.12 849 25.07 2.9 37.2 88 1.1 34.1
17:45 1020 30.12 849 25.07 2.5 36.5 89 0.8 33.5
17:50 1020 30.12 849 25.07 2.8 37 88 0.9 33.7
17:55 1020 30.12 849 25.07 2.9 37.3 87 1 33.8
18:00 1020 30.12 849 25.07 3.1 37.6 85 0.9 33.6
18:05 1020 30.12 849 25.07 3.3 37.9 83 0.7 33.3
18:10 1020 30.12 849 25.07 3.1 37.7 85 0.8 33.5
18:15 1020 30.12 849 25.07 3.4 38.2 83 0.9 33.6
18:20 1020 30.12 849 25.07 3.9 39 78 0.4 32.7
18:25 1020 30.12 849 25.07 4.1 39.3 75 0 32.1
18:30 1020 30.12 850 25.1 4.1 39.4 73 -0.2 31.6
18:35 1020 30.12 850 25.1 4.1 39.4 75 0.1 32.2
18:40 1020 30.12 850 25.1 4.1 39.4 75 0.1 32.2
18:45 1021 30.15 850 25.1 4 39.3 76 0.2 32.4
18:50 1021 30.15 850 25.1 4.1 39.3 76 0.2 32.4
18:55 1021 30.15 850 25.1 4 39.3 77 0.3 32.6
19:00 1021 30.15 850 25.1 4 39.1 76 0.1 32.2
19:05 1021 30.15 850 25.1 3.9 39 76 0.1 32.2
19:10 1021 30.15 850 25.1 3.8 38.9 78 0.3 32.6
19:15 1021 30.15 850 25.1 3.8 38.8 77 0.2 32.3
19:20 1021 30.15 850 25.1 3.8 38.8 76 -0 31.9
19:25 1021 30.15 850 25.1 3.8 38.9 76 -0.1 31.8
19:30 1021 30.15 850 25.1 3.8 38.8 74 -0.4 31.3
19:35 1021 30.15 850 25.1 3.7 38.7 75 -0.3 31.4
19:40 1021 30.15 850 25.1 3.7 38.6 75 -0.3 31.4
19:45 1021 30.15 850 25.1 3.5 38.3 74 -0.6 30.8
19:50 1021 30.15 851 25.13 3.4 38.2 74 -0.8 30.6
19:55 1021 30.15 851 25.13 3.4 38.1 75 -0.7 30.7
20:00 1021 30.15 851 25.13 3.4 38.1 75 -0.6 30.9
20:05 1022 30.18 851 25.13 3.4 38.1 75 -0.6 30.9
20:10 1022 30.18 851 25.13 3.4 38 75 -0.7 30.7
20:15 1022 30.18 851 25.13 3.4 38.1 76 -0.5 31.1
20:20 1022 30.18 851 25.13 3.4 38 76 -0.4 31.2
20:25 1022 30.18 851 25.13 3.4 38 76 -0.5 31.1
20:30 1022 30.18 851 25.13 3.2 37.7 77 -0.4 31.3
20:35 1022 30.18 851 25.13 3.3 37.9 77 -0.4 31.3
20:40 1022 30.18 851 25.13 3.2 37.8 78 -0.3 31.4
20:45 1022 30.18 851 25.13 3.1 37.6 78 -0.4 31.3
20:50 1022 30.18 851 25.13 2.8 37.1 80 -0.3 31.5
20:55 1022 30.18 851 25.13 2.7 36.9 81 -0.3 31.5
21:00 1022 30.18 851 25.13 2.7 36.9 81 -0.2 31.6
21:05 1022 30.18 852 25.16 2.7 36.9 80 -0.4 31.3
21:10 1022 30.18 852 25.16 2.8 37 80 -0.3 31.4
21:15 1022 30.18 852 25.16 2.9 37.1 78 -0.6 31
21:20 1022 30.18 852 25.16 2.9 37.2 78 -0.5 31
21:25 1022 30.18 852 25.16 2.9 37.3 78 -0.4 31.2
21:30 1023 30.21 852 25.16 3 37.3 78 -0.5 31.2
21:35 1023 30.21 852 25.16 3 37.3 78 -0.5 31.2
21:40 1023 30.21 852 25.16 2.9 37.2 78 -0.5 31.1
21:45 1023 30.21 852 25.16 2.9 37.2 78 -0.5 31.1
21:50 1023 30.21 852 25.16 2.8 37 79 -0.4 31.2
21:55 1023 30.21 852 25.16 2.7 36.8 80 -0.4 31.2
22:00 1023 30.21 852 25.16 2.6 36.7 80 -0.4 31.2
22:05 1023 30.21 852 25.16 2.6 36.7 80 -0.5 31.1
22:10 1023 30.21 852 25.16 2.7 36.9 77 -0.9 30.4
22:15 1023 30.21 852 25.16 2.8 37 77 -0.9 30.4
22:20 1023 30.21 852 25.16 2.8 37.1 76 -0.9 30.4
22:25 1023 30.21 852 25.16 2.8 37.1 76 -1.1 30.1
22:30 1023 30.21 852 25.16 2.8 37.1 76 -1.1 30.1
22:35 1023 30.21 852 25.16 2.7 36.9 75 -1.2 29.8
22:40 1023 30.21 852 25.16 2.6 36.7 76 -1.2 29.8
22:45 1023 30.21 852 25.16 2.6 36.6 75 -1.4 29.5
22:50 1023 30.21 852 25.16 2.5 36.5 75 -1.5 29.2
22:55 1023 30.21 852 25.16 2.4 36.3 76 -1.5 29.3
23:00 1023 30.21 853 25.19 2.3 36.2 76 -1.5 29.2
23:05 1023 30.21 853 25.19 2.3 36.2 76 -1.5 29.3
23:10 1023 30.21 853 25.19 2.3 36.1 75 -1.8 28.8
23:15 1023 30.21 853 25.19 2.2 35.9 77 -1.5 29.3
23:20 1024 30.24 853 25.19 2.2 36 76 -1.6 29
23:25 1024 30.24 853 25.19 2.1 35.9 75 -1.8 28.7
23:30 1024 30.24 853 25.19 2.3 36.1 75 -1.7 29
23:35 1024 30.24 853 25.19 2.3 36.2 73 -1.9 28.5
23:40 1024 30.24 853 25.19 2.3 36.1 74 -1.9 28.5
23:45 1024 30.24 853 25.19 2.2 36 74 -1.9 28.6
23:50 1024 30.24 853 25.19 2.2 36 74 -2 28.3
23:55 1024 30.24 853 25.19 2.2 36 74 -2 28.4
24:00 1024 30.24 853 25.19 2.2 35.9 74 -2 28.4